createdAt,value
2023-03-24T00:02:37.763Z,8.53
2023-03-24T00:05:41.130Z,8.47
2023-03-24T00:08:47.833Z,8.36
2023-03-24T00:11:52.690Z,8.31
2023-03-24T00:14:56.144Z,8.27
2023-03-24T00:17:59.150Z,8.26
2023-03-24T00:21:01.834Z,8.21
2023-03-24T00:24:07.996Z,8.15
2023-03-24T00:27:13.825Z,8.13
2023-03-24T00:30:19.241Z,8.16
2023-03-24T00:33:21.834Z,8.15
2023-03-24T00:36:37.561Z,8.10
2023-03-24T00:39:42.814Z,8.14
2023-03-24T00:42:47.738Z,8.15
2023-03-24T00:46:05.951Z,8.19
2023-03-24T00:49:12.091Z,8.19
2023-03-24T00:52:20.771Z,8.16
2023-03-24T00:55:23.971Z,8.15
2023-03-24T00:58:29.978Z,8.07
2023-03-24T01:01:35.866Z,7.96
2023-03-24T01:04:41.080Z,7.95
2023-03-24T01:07:44.433Z,7.84
2023-03-24T01:10:53.349Z,7.78
2023-03-24T01:13:56.553Z,7.76
2023-03-24T01:17:00.004Z,7.77
2023-03-24T01:20:11.436Z,7.75
2023-03-24T01:23:19.633Z,7.73
2023-03-24T01:26:22.747Z,7.64
2023-03-24T01:29:25.667Z,7.60
2023-03-24T01:32:30.017Z,7.60
2023-03-24T01:35:32.840Z,7.62
2023-03-24T01:38:37.665Z,7.58
2023-03-24T01:41:42.441Z,7.62
2023-03-24T01:44:48.696Z,7.65
2023-03-24T01:47:52.286Z,7.67
2023-03-24T01:51:01.875Z,7.65
2023-03-24T01:54:12.725Z,7.68
2023-03-24T01:57:31.060Z,7.70
2023-03-24T02:00:34.671Z,7.68
2023-03-24T02:03:42.395Z,7.63
2023-03-24T02:06:45.924Z,7.57
2023-03-24T02:09:51.259Z,7.56
2023-03-24T02:12:54.087Z,7.53
2023-03-24T02:16:18.445Z,7.53
2023-03-24T02:20:01.162Z,7.54
2023-03-24T02:23:26.541Z,7.51
2023-03-24T02:26:52.979Z,7.48
2023-03-24T02:30:10.658Z,7.45
2023-03-24T02:33:15.718Z,7.35
2023-03-24T02:36:36.930Z,7.31
2023-03-24T02:40:15.406Z,7.26
2023-03-24T02:43:57.641Z,7.18
2023-03-24T02:47:03.472Z,7.22
2023-03-24T02:50:24.341Z,7.24
2023-03-24T02:53:47.543Z,7.26
2023-03-24T02:56:54.816Z,7.29
2023-03-24T03:00:09.150Z,7.27
2023-03-24T03:03:26.055Z,7.25
2023-03-24T03:06:36.438Z,7.22
2023-03-24T03:09:47.808Z,7.20
2023-03-24T03:12:58.050Z,7.11
2023-03-24T03:16:09.826Z,7.11
2023-03-24T03:19:22.404Z,7.04
2023-03-24T03:22:32.197Z,6.96
2023-03-24T03:25:42.312Z,6.94
2023-03-24T03:28:57.781Z,6.91
2023-03-24T03:32:10.216Z,6.90
2023-03-24T03:35:29.079Z,6.91
2023-03-24T03:38:44.786Z,6.86
2023-03-24T03:41:48.012Z,6.79
2023-03-24T03:44:52.014Z,6.76
2023-03-24T03:47:58.429Z,6.77
2023-03-24T03:51:13.268Z,6.81
2023-03-24T03:54:21.345Z,6.86
2023-03-24T03:57:25.869Z,6.81
2023-03-24T04:00:38.104Z,6.77
2023-03-24T04:04:04.846Z,6.76
2023-03-24T04:07:32.614Z,6.68
2023-03-24T04:10:51.246Z,6.63
2023-03-24T04:14:29.648Z,6.64
2023-03-24T04:17:52.144Z,6.59
2023-03-24T04:21:20.071Z,6.58
2023-03-24T04:24:43.061Z,6.55
2023-03-24T04:28:14.774Z,6.57
2023-03-24T04:32:05.584Z,6.53
2023-03-24T04:35:41.688Z,6.52
2023-03-24T04:38:51.569Z,6.55
2023-03-24T04:42:02.742Z,6.58
2023-03-24T04:45:09.005Z,6.62
2023-03-24T04:48:20.858Z,6.62
2023-03-24T04:51:29.611Z,6.61
2023-03-24T04:54:36.309Z,6.64
2023-03-24T04:57:41.757Z,6.70
2023-03-24T05:00:50.129Z,6.74
2023-03-24T05:03:54.148Z,6.73
2023-03-24T05:06:57.014Z,6.76
2023-03-24T05:10:02.518Z,6.77
2023-03-24T05:13:10.109Z,6.80
2023-03-24T05:16:17.000Z,6.87
2023-03-24T05:19:21.895Z,6.91
2023-03-24T05:22:29.872Z,6.95
2023-03-24T05:25:32.781Z,7.11
2023-03-24T05:28:36.919Z,7.23
2023-03-24T05:31:46.514Z,7.39
2023-03-24T05:34:51.787Z,7.53
2023-03-24T05:37:57.581Z,7.61
2023-03-24T05:41:01.557Z,7.72
2023-03-24T05:44:10.622Z,7.75
2023-03-24T05:47:24.069Z,7.86
2023-03-24T05:50:28.067Z,7.94
2023-03-24T05:53:34.423Z,8.05
2023-03-24T05:56:39.615Z,8.14
2023-03-24T05:59:45.254Z,8.39
2023-03-24T06:02:52.127Z,8.58
2023-03-24T06:06:00.566Z,8.92
2023-03-24T06:09:12.464Z,9.27
2023-03-24T06:12:23.959Z,9.73
2023-03-24T06:15:32.972Z,10.10
2023-03-24T06:18:40.542Z,10.98
2023-03-24T06:21:44.869Z,12.12
2023-03-24T06:24:58.905Z,12.97
2023-03-24T06:28:06.041Z,13.69
2023-03-24T06:31:24.551Z,14.63
2023-03-24T06:34:29.396Z,15.63
2023-03-24T06:37:37.038Z,14.67
2023-03-24T06:40:42.282Z,14.94
2023-03-24T06:43:48.570Z,15.18
2023-03-24T06:46:54.478Z,16.56
2023-03-24T06:49:57.762Z,16.87
2023-03-24T06:53:08.496Z,16.69
2023-03-24T06:56:19.914Z,17.82
2023-03-24T06:59:25.302Z,17.07
2023-03-24T07:02:35.710Z,17.99
2023-03-24T07:05:40.651Z,19.29
2023-03-24T07:08:48.046Z,18.99
2023-03-24T07:11:51.577Z,18.65
2023-03-24T07:15:04.677Z,18.72
2023-03-24T07:18:13.764Z,18.69
2023-03-24T07:21:18.481Z,18.60
2023-03-24T07:24:26.743Z,18.82
2023-03-24T07:27:33.561Z,19.17
2023-03-24T07:30:41.012Z,19.68
2023-03-24T07:33:45.576Z,19.47
2023-03-24T07:36:53.967Z,19.81
2023-03-24T07:39:58.689Z,20.17
2023-03-24T07:43:07.925Z,19.60
2023-03-24T07:46:19.864Z,18.43
2023-03-24T07:49:24.772Z,18.48
2023-03-24T07:52:30.613Z,17.86
2023-03-24T07:55:35.633Z,19.89
2023-03-24T07:58:39.434Z,19.82
2023-03-24T08:01:46.610Z,20.99
2023-03-24T08:04:55.599Z,21.50
2023-03-24T08:08:06.887Z,20.98
2023-03-24T08:11:14.496Z,21.45
2023-03-24T08:14:17.570Z,20.25
2023-03-24T08:17:23.201Z,20.44
2023-03-24T08:20:27.542Z,20.52
2023-03-24T08:23:32.058Z,20.07
2023-03-24T08:26:35.813Z,20.69
2023-03-24T08:29:40.739Z,19.46
2023-03-24T08:32:48.075Z,18.85
2023-03-24T08:35:51.663Z,18.55
2023-03-24T08:38:56.388Z,19.18
2023-03-24T08:42:00.989Z,18.97
2023-03-24T08:45:06.639Z,20.34
2023-03-24T08:48:11.221Z,20.82
2023-03-24T08:51:16.829Z,20.80
2023-03-24T08:54:21.879Z,21.37
2023-03-24T08:57:24.947Z,21.78
2023-03-24T09:00:36.699Z,21.96
2023-03-24T09:03:48.046Z,22.26
2023-03-24T09:06:53.708Z,20.99
2023-03-24T09:09:57.397Z,21.87
2023-03-24T09:13:02.705Z,21.73
2023-03-24T09:16:09.809Z,21.68
2023-03-24T09:19:14.213Z,20.83
2023-03-24T09:22:20.504Z,21.38
2023-03-24T09:25:24.526Z,21.66
2023-03-24T09:28:27.816Z,20.98
2023-03-24T09:31:32.153Z,21.43
2023-03-24T09:34:38.574Z,21.69
2023-03-24T09:37:44.040Z,21.67
2023-03-24T09:40:53.589Z,23.17
2023-03-24T09:44:06.979Z,23.97
2023-03-24T09:47:28.018Z,24.96
2023-03-24T09:50:40.533Z,25.29
2023-03-24T09:53:49.809Z,25.09
2023-03-24T09:56:56.201Z,25.89
2023-03-24T10:00:12.489Z,25.38
2023-03-24T10:03:23.748Z,24.67
2023-03-24T10:06:48.618Z,22.97
2023-03-24T10:09:58.580Z,22.20
2023-03-24T10:13:08.662Z,22.22
2023-03-24T10:16:22.674Z,22.77
2023-03-24T10:19:41.788Z,22.83
2023-03-24T10:23:23.072Z,23.28
2023-03-24T10:26:41.909Z,22.90
2023-03-24T10:29:51.631Z,22.66
2023-03-24T10:33:03.807Z,22.64
2023-03-24T10:36:21.850Z,22.58
2023-03-24T10:39:38.102Z,23.52
2023-03-24T10:43:07.407Z,23.99
2023-03-24T10:46:16.749Z,24.23
2023-03-24T10:49:23.892Z,23.36
2023-03-24T10:52:40.670Z,23.22
2023-03-24T10:55:47.887Z,23.85
2023-03-24T10:58:52.641Z,24.03
2023-03-24T11:02:10.798Z,24.05
2023-03-24T11:05:19.996Z,23.96
2023-03-24T11:08:28.752Z,24.03
2023-03-24T11:11:43.502Z,24.57
2023-03-24T11:14:53.296Z,24.55
2023-03-24T11:18:00.603Z,23.82
2023-03-24T11:21:17.742Z,24.18
2023-03-24T11:24:21.854Z,25.12
2023-03-24T11:27:25.696Z,25.08
2023-03-24T11:30:55.679Z,25.20
2023-03-24T11:34:09.421Z,24.76
2023-03-24T11:37:41.490Z,24.81
2023-03-24T11:41:01.540Z,25.01
2023-03-24T11:44:21.064Z,24.71
2023-03-24T11:47:34.695Z,24.99
2023-03-24T11:50:46.661Z,24.81
2023-03-24T11:53:53.932Z,24.98
2023-03-24T11:57:07.569Z,25.04
2023-03-24T12:00:20.156Z,24.21
2023-03-24T12:03:53.895Z,24.17
2023-03-24T12:07:47.574Z,24.31
2023-03-24T12:11:08.878Z,24.64
2023-03-24T12:14:20.016Z,24.01
2023-03-24T12:17:29.114Z,24.27
2023-03-24T12:20:49.505Z,24.23
2023-03-24T12:24:04.026Z,24.47
2023-03-24T12:27:37.985Z,24.43
2023-03-24T12:31:09.652Z,24.46
2023-03-24T12:34:45.607Z,24.40
2023-03-24T12:38:11.060Z,24.19
2023-03-24T12:41:49.632Z,23.80
2023-03-24T12:45:33.195Z,23.69
2023-03-24T12:48:52.073Z,23.67
2023-03-24T12:52:26.069Z,24.09
2023-03-24T12:55:34.680Z,23.80
2023-03-24T12:58:54.211Z,23.66
2023-03-24T13:02:24.865Z,23.56
2023-03-24T13:05:44.536Z,23.56
2023-03-24T13:09:13.621Z,23.49
2023-03-24T13:12:22.456Z,23.71
2023-03-24T13:15:36.751Z,23.62
2023-03-24T13:19:00.014Z,23.57
2023-03-24T13:22:06.993Z,23.31
2023-03-24T13:25:55.850Z,23.19
2023-03-24T13:29:09.530Z,23.38
2023-03-24T13:32:22.663Z,23.56
2023-03-24T13:36:22.861Z,23.48
2023-03-24T13:39:30.872Z,23.20
2023-03-24T13:42:45.578Z,23.01
2023-03-24T13:46:04.784Z,22.89
2023-03-24T13:49:22.520Z,22.93
2023-03-24T13:52:41.661Z,22.86
2023-03-24T13:55:52.626Z,22.78
2023-03-24T13:59:04.087Z,22.81
2023-03-24T14:02:47.998Z,22.96
2023-03-24T14:06:09.181Z,23.18
2023-03-24T14:09:25.936Z,23.12
2023-03-24T14:12:39.540Z,22.99
2023-03-24T14:15:51.630Z,22.91
2023-03-24T14:19:09.770Z,22.90
2023-03-24T14:22:41.154Z,22.81
2023-03-24T14:26:03.590Z,22.72
2023-03-24T14:29:49.663Z,22.59
2023-03-24T14:33:00.615Z,22.50
2023-03-24T14:36:21.520Z,22.45
2023-03-24T14:39:52.634Z,22.43
2023-03-24T14:43:26.690Z,22.38
2023-03-24T14:46:44.545Z,22.25
2023-03-24T14:50:04.581Z,22.16
2023-03-24T14:53:22.789Z,22.09
2023-03-24T14:56:39.751Z,22.09
2023-03-24T14:59:53.878Z,22.03
2023-03-24T15:03:49.846Z,21.95
2023-03-24T15:06:58.728Z,21.78
2023-03-24T15:10:05.647Z,21.64
2023-03-24T15:13:29.041Z,21.57
2023-03-24T15:16:39.761Z,21.58
2023-03-24T15:19:53.971Z,21.58
2023-03-24T15:23:11.645Z,21.50
2023-03-24T15:26:28.019Z,21.42
2023-03-24T15:29:40.869Z,21.29
2023-03-24T15:32:52.639Z,21.20
2023-03-24T15:36:01.054Z,21.09
2023-03-24T15:39:21.032Z,21.02
2023-03-24T15:42:29.978Z,20.92
2023-03-24T15:46:05.106Z,20.83
2023-03-24T15:49:40.570Z,20.76
2023-03-24T15:53:19.878Z,20.65
2023-03-24T15:56:29.202Z,20.56
2023-03-24T15:59:45.919Z,20.43
2023-03-24T16:02:57.435Z,20.37
2023-03-24T16:06:16.630Z,20.25
2023-03-24T16:09:27.331Z,20.15
2023-03-24T16:12:35.679Z,20.05
2023-03-24T16:16:01.666Z,20.00
2023-03-24T16:19:07.664Z,19.93
2023-03-24T16:22:14.243Z,19.80
2023-03-24T16:25:21.759Z,19.65
2023-03-24T16:28:25.952Z,19.53
2023-03-24T16:31:42.952Z,19.36
2023-03-24T16:34:58.852Z,19.18
2023-03-24T16:38:07.001Z,19.08
2023-03-24T16:41:13.417Z,18.93
2023-03-24T16:44:21.682Z,18.78
2023-03-24T16:47:26.684Z,18.62
2023-03-24T16:50:42.775Z,18.51
2023-03-24T16:54:03.595Z,18.38
2023-03-24T16:57:19.169Z,18.24
2023-03-24T17:00:24.859Z,18.12
2023-03-24T17:03:29.995Z,18.01
2023-03-24T17:06:47.222Z,17.89
2023-03-24T17:09:53.808Z,17.77
2023-03-24T17:13:19.655Z,17.65
2023-03-24T17:16:37.674Z,17.56
2023-03-24T17:19:42.932Z,17.47
2023-03-24T17:22:56.745Z,17.39
2023-03-24T17:26:01.738Z,17.27
2023-03-24T17:29:14.855Z,17.16
2023-03-24T17:32:37.757Z,17.02
2023-03-24T17:35:46.922Z,16.87
2023-03-24T17:38:54.910Z,16.72
2023-03-24T17:42:05.388Z,16.62
2023-03-24T17:45:16.937Z,16.49
2023-03-24T17:48:28.907Z,16.41
2023-03-24T17:51:33.684Z,16.32
2023-03-24T17:54:45.755Z,16.24
2023-03-24T17:57:55.827Z,16.13
2023-03-24T18:01:09.397Z,16.04
2023-03-24T18:04:27.771Z,15.90
2023-03-24T18:07:34.683Z,15.76
2023-03-24T18:10:40.676Z,15.63
2023-03-24T18:13:51.591Z,15.49
2023-03-24T18:16:59.697Z,15.40
2023-03-24T18:20:10.965Z,15.30
2023-03-24T18:23:21.460Z,15.21
2023-03-24T18:26:26.658Z,15.13
2023-03-24T18:29:31.673Z,15.06
2023-03-24T18:32:49.088Z,15.01
2023-03-24T18:36:00.188Z,14.93
2023-03-24T18:39:08.648Z,14.83
2023-03-24T18:42:18.655Z,14.76
2023-03-24T18:45:23.148Z,14.75
2023-03-24T18:48:28.465Z,14.72
2023-03-24T18:51:40.016Z,14.73
2023-03-24T18:54:53.732Z,14.73
2023-03-24T18:58:03.598Z,14.76
2023-03-24T19:01:12.461Z,14.75
2023-03-24T19:04:22.703Z,14.72
2023-03-24T19:07:33.627Z,14.69
2023-03-24T19:10:40.766Z,14.65
2023-03-24T19:13:50.879Z,14.62
2023-03-24T19:17:01.725Z,14.64
2023-03-24T19:20:08.805Z,14.73
2023-03-24T19:23:12.846Z,14.83
2023-03-24T19:26:27.033Z,15.01
2023-03-24T19:29:33.617Z,15.19
2023-03-24T19:32:40.739Z,15.37
2023-03-24T19:35:57.822Z,15.50
2023-03-24T19:39:08.953Z,15.57
2023-03-24T19:42:12.136Z,15.51
2023-03-24T19:45:17.737Z,15.43
2023-03-24T19:48:38.591Z,15.34
2023-03-24T19:51:59.299Z,15.26
2023-03-24T19:55:17.707Z,15.13
2023-03-24T19:58:26.635Z,15.06
2023-03-24T20:01:38.177Z,15.00
2023-03-24T20:04:46.681Z,14.97
2023-03-24T20:07:59.941Z,14.89
2023-03-24T20:11:12.903Z,14.83
2023-03-24T20:14:25.044Z,14.81
2023-03-24T20:17:38.751Z,14.75
2023-03-24T20:20:46.421Z,14.74
2023-03-24T20:23:51.728Z,14.75
2023-03-24T20:27:04.772Z,14.77
2023-03-24T20:30:10.772Z,14.79
2023-03-24T20:33:21.013Z,14.82
2023-03-24T20:36:29.082Z,14.86
2023-03-24T20:39:47.018Z,14.88
2023-03-24T20:42:52.116Z,14.88
2023-03-24T20:45:58.958Z,14.89
2023-03-24T20:49:08.783Z,14.91
2023-03-24T20:52:20.743Z,14.95
2023-03-24T20:55:25.065Z,14.86
2023-03-24T20:58:31.477Z,14.81
2023-03-24T21:01:42.201Z,14.71
2023-03-24T21:04:46.678Z,14.62
2023-03-24T21:07:55.698Z,14.59
2023-03-24T21:11:01.692Z,14.58
2023-03-24T21:14:19.643Z,14.57
2023-03-24T21:17:33.616Z,14.61
2023-03-24T21:20:42.407Z,14.56
2023-03-24T21:23:45.440Z,14.55
2023-03-24T21:26:54.028Z,14.54
2023-03-24T21:29:58.662Z,14.48
2023-03-24T21:33:02.152Z,14.42
2023-03-24T21:36:07.151Z,14.37
2023-03-24T21:39:23.587Z,14.28
2023-03-24T21:42:41.593Z,14.16
2023-03-24T21:45:46.158Z,14.13
2023-03-24T21:48:52.308Z,14.17
2023-03-24T21:51:57.287Z,14.17
2023-03-24T21:55:07.580Z,14.19
2023-03-24T21:58:12.724Z,14.19
2023-03-24T22:01:29.436Z,14.27
2023-03-24T22:04:38.612Z,14.29
2023-03-24T22:07:52.720Z,14.27
2023-03-24T22:10:58.787Z,14.29
2023-03-24T22:14:02.521Z,14.33
2023-03-24T22:17:05.741Z,14.36
2023-03-24T22:20:10.540Z,14.38
2023-03-24T22:23:13.952Z,14.36
2023-03-24T22:26:18.070Z,14.33
2023-03-24T22:29:21.838Z,14.32
2023-03-24T22:32:24.667Z,14.25
2023-03-24T22:35:30.650Z,14.18
2023-03-24T22:38:40.622Z,14.13
2023-03-24T22:41:45.446Z,14.01
2023-03-24T22:44:48.520Z,13.92
2023-03-24T22:47:51.544Z,13.80
2023-03-24T22:50:54.916Z,13.73
2023-03-24T22:53:58.423Z,13.72
2023-03-24T22:57:04.934Z,13.69
2023-03-24T23:00:10.706Z,13.66
2023-03-24T23:03:15.742Z,13.65
2023-03-24T23:06:20.630Z,13.67
2023-03-24T23:09:26.794Z,13.69
2023-03-24T23:12:32.287Z,13.73
2023-03-24T23:15:35.088Z,13.72
2023-03-24T23:18:39.918Z,13.72
2023-03-24T23:21:42.827Z,13.71
2023-03-24T23:24:53.679Z,13.76
2023-03-24T23:28:05.112Z,13.76
2023-03-24T23:31:15.760Z,13.80
2023-03-24T23:34:18.928Z,13.85
2023-03-24T23:37:32.599Z,13.88
2023-03-24T23:40:36.633Z,13.90
2023-03-24T23:43:40.985Z,13.89
2023-03-24T23:46:43.646Z,13.93
2023-03-24T23:49:47.273Z,13.93
2023-03-24T23:52:49.740Z,13.95
2023-03-24T23:55:57.572Z,13.98
2023-03-24T23:59:01.369Z,14.01
